RAIN

Not for real navigation. The accuracy of this data is not assured See disclaimer for more information



ICAO NAME COUNTRY WIND Kt GUST Kt VIS m TEMP/DEW C BARO METAR
CYAY Saint Anthony Airport Canada 11 0 400 2/2 29.90 CYAY 220914Z AUTO 23011KT 0.25SM -RA FG VV003 02/02 A2990 RMK ICG PAST HR SLP129
KLEW Auburn-Lewiston ME United States 3 0 400 10/10 30.12 KLEW 220906Z AUTO 33003KT 0.25SM -RA FG OVC002 10/10 A3012 RMK AO2 RAB01 P0000
KCMX HANCOCK HOUGHTON CTY. MEMO MI United States 5 0 800 5/3 30.11 KCMX 220917Z AUTO 08005KT 0.5SM -RA FG VV002 05/03 A3011 RMK AO2 RAB09 P0000 T00500033
PABA Barter Island, Barter Island L AK United States 0 0 800 -13/-15 29.87 PABA 220919Z 00000KT 0.5SM -SN FZFG OVC004 M13/M15 A2987 RMK AO2 P0000 FZRANO
LTCW 7 0 1100 -1/-1 29.77 LTCW 220850Z 10007KT 1100 R11/1100N R29/1100N SHSNRA BR FEW004 BKN020 M01/M01 Q1008

Show more